Time,TemperatureF,DewpointF,PressureIn,WindDirection,WindDirectionDegrees,WindSpeedMPH,WindSpeedGustMPH,Humidity,HourlyPrecipIn,Conditions,Clouds,dailyrainin,SolarRadiationWatts/m^2,SoftwareType,DateUTC
2013-11-24 00:21:00,23.0,19.0,-100.00,SSW,201,3.0,7.0,86,-99.99,,,0.00,0.000000,,2013-11-24 09:21:00,
2013-11-24 00:53:00,24.0,21.0,-100.00,East,88,0.0,4.0,89,0.00,,,0.00,0.000000,,2013-11-24 09:53:00,
2013-11-24 01:03:00,24.0,21.0,-100.00,East,88,0.0,4.0,89,0.00,,,0.00,0.000000,,2013-11-24 10:03:00,
2013-11-24 01:13:00,24.0,21.0,-100.00,East,88,0.0,4.0,89,0.00,,,0.00,0.000000,,2013-11-24 10:13:00,
2013-11-24 01:23:00,24.0,21.0,-100.00,East,88,0.0,4.0,89,0.00,,,0.00,0.000000,,2013-11-24 10:23:00,
2013-11-24 03:53:00,24.0,22.0,-100.00,NNW,344,0.0,2.0,93,-99.99,,,0.00,0.000000,,2013-11-24 12:53:00,
2013-11-24 04:01:00,24.0,22.0,-100.00,NNW,344,0.0,2.0,93,-99.99,,,0.00,0.000000,,2013-11-24 13:01:00,
2013-11-24 04:12:00,24.0,22.0,-100.00,NNW,344,0.0,2.0,93,-99.99,,,0.00,0.000000,,2013-11-24 13:12:00,
2013-11-24 04:21:00,24.0,22.0,-100.00,NNW,344,0.0,2.0,93,-99.99,,,0.00,0.000000,,2013-11-24 13:21:00,
2013-11-24 04:52:00,26.0,25.0,-100.00,South,180,0.0,3.0,94,0.00,,,0.00,0.000000,,2013-11-24 13:52:00,
2013-11-24 05:01:00,26.0,25.0,-100.00,South,180,0.0,3.0,94,0.00,,,0.00,0.000000,,2013-11-24 14:01:00,
2013-11-24 05:11:00,26.0,25.0,-100.00,South,180,0.0,3.0,94,0.00,,,0.00,0.000000,,2013-11-24 14:11:00,
2013-11-24 05:22:00,26.0,25.0,-100.00,South,180,0.0,3.0,94,0.00,,,0.00,0.000000,,2013-11-24 14:22:00,
2013-11-24 05:53:00,29.0,28.0,-100.00,West,261,0.0,3.0,96,0.00,,,0.00,0.000000,,2013-11-24 14:53:00,
2013-11-24 06:02:00,29.0,28.0,-100.00,West,261,0.0,3.0,96,0.00,,,0.00,0.000000,,2013-11-24 15:02:00,
2013-11-24 06:12:00,29.0,28.0,-100.00,West,261,0.0,3.0,96,0.00,,,0.00,0.000000,,2013-11-24 15:12:00,
2013-11-24 06:22:00,29.0,28.0,-100.00,West,261,0.0,3.0,96,0.00,,,0.00,0.000000,,2013-11-24 15:22:00,
2013-11-24 06:53:00,28.0,27.0,-100.00,NNE,29,0.0,2.0,95,0.00,,,-99.99,0.000000,,2013-11-24 15:53:00,
2013-11-24 07:03:00,28.0,27.0,-100.00,NNE,29,0.0,2.0,95,0.00,,,-99.99,0.000000,,2013-11-24 16:03:00,
2013-11-24 07:13:00,28.0,27.0,-100.00,NNE,29,0.0,2.0,95,0.00,,,-99.99,0.000000,,2013-11-24 16:13:00,
2013-11-24 07:23:00,28.0,27.0,-100.00,NNE,29,0.0,2.0,95,0.00,,,-99.99,0.000000,,2013-11-24 16:23:00,
2013-11-24 07:53:00,28.0,27.0,-100.00,NNE,22,0.0,2.0,95,0.00,,,0.00,0.000000,,2013-11-24 16:53:00,
2013-11-24 08:02:00,28.0,27.0,-100.00,NNE,22,0.0,2.0,95,0.00,,,0.00,0.000000,,2013-11-24 17:02:00,
2013-11-24 08:12:00,28.0,27.0,-100.00,NNE,22,0.0,2.0,95,0.00,,,0.00,0.000000,,2013-11-24 17:12:00,
2013-11-24 08:22:00,28.0,27.0,-100.00,NNE,22,0.0,2.0,95,0.00,,,0.00,0.000000,,2013-11-24 17:22:00,
2013-11-24 08:52:00,29.0,28.0,-100.00,SW,222,0.0,3.0,95,0.00,,,0.00,0.000000,,2013-11-24 17:52:00,
2013-11-24 09:02:00,29.0,28.0,-100.00,SW,222,0.0,3.0,95,0.00,,,0.00,0.000000,,2013-11-24 18:02:00,
2013-11-24 09:12:00,29.0,28.0,-100.00,SW,222,0.0,3.0,95,0.00,,,0.00,0.000000,,2013-11-24 18:12:00,
2013-11-24 09:21:00,29.0,28.0,-100.00,SW,222,0.0,3.0,95,0.00,,,0.00,0.000000,,2013-11-24 18:21:00,
2013-11-24 09:53:00,28.0,27.0,-100.00,North,1,0.0,2.0,95,0.00,,,0.00,0.000000,,2013-11-24 18:53:00,
2013-11-24 10:02:00,28.0,27.0,-100.00,North,1,0.0,2.0,95,0.00,,,0.00,0.000000,,2013-11-24 19:02:00,
2013-11-24 10:11:00,28.0,27.0,-100.00,North,1,0.0,2.0,95,0.00,,,0.00,0.000000,,2013-11-24 19:11:00,
2013-11-24 10:21:00,28.0,27.0,-100.00,North,1,0.0,2.0,95,0.00,,,0.00,0.000000,,2013-11-24 19:21:00,
2013-11-24 10:52:00,28.0,27.0,-100.00,SSW,201,0.0,4.0,95,0.00,,,-99.99,3.000000,,2013-11-24 19:52:00,
2013-11-24 11:02:00,28.0,27.0,-100.00,SSW,201,0.0,4.0,95,0.00,,,-99.99,3.000000,,2013-11-24 20:02:00,
2013-11-24 11:11:00,28.0,27.0,-100.00,SSW,201,0.0,4.0,95,0.00,,,-99.99,3.000000,,2013-11-24 20:11:00,
2013-11-24 11:22:00,28.0,27.0,-100.00,SSW,201,0.0,4.0,95,0.00,,,-99.99,3.000000,,2013-11-24 20:22:00,
2013-11-24 11:52:00,29.0,27.0,-100.00,NNE,33,0.0,0.0,94,0.00,,,0.00,13.000000,,2013-11-24 20:52:00,
2013-11-24 12:02:00,29.0,27.0,-100.00,NNE,33,0.0,0.0,94,0.00,,,0.00,13.000000,,2013-11-24 21:02:00,
2013-11-24 12:11:00,29.0,27.0,-100.00,NNE,33,0.0,0.0,94,0.00,,,0.00,13.000000,,2013-11-24 21:11:00,
2013-11-24 12:21:00,29.0,27.0,-100.00,NNE,33,0.0,0.0,94,0.00,,,0.00,13.000000,,2013-11-24 21:21:00,
2013-11-24 12:54:00,30.0,28.0,-100.00,ENE,75,1.0,3.0,92,0.00,,,0.00,19.000000,,2013-11-24 21:54:00,
2013-11-24 13:03:00,30.0,28.0,-100.00,ENE,75,1.0,3.0,92,0.00,,,0.00,19.000000,,2013-11-24 22:03:00,
2013-11-24 13:12:00,30.0,28.0,-100.00,ENE,75,1.0,3.0,92,0.00,,,0.00,19.000000,,2013-11-24 22:12:00,
2013-11-24 13:23:00,30.0,28.0,-100.00,ENE,75,1.0,3.0,92,0.00,,,0.00,19.000000,,2013-11-24 22:23:00,
2013-11-24 13:53:00,32.0,30.0,-100.00,NNE,26,3.0,5.0,93,0.00,,,0.00,17.000000,,2013-11-24 22:53:00,
2013-11-24 14:02:00,32.0,30.0,-100.00,NNE,26,3.0,5.0,93,0.00,,,0.00,17.000000,,2013-11-24 23:02:00,
2013-11-24 14:12:00,32.0,30.0,-100.00,NNE,26,3.0,5.0,93,0.00,,,0.00,17.000000,,2013-11-24 23:12:00,
2013-11-24 14:22:00,32.0,30.0,-100.00,NNE,26,3.0,5.0,93,0.00,,,0.00,17.000000,,2013-11-24 23:22:00,
2013-11-24 14:52:00,32.0,30.0,-100.00,North,11,1.0,6.0,92,0.00,,,0.00,13.000000,,2013-11-24 23:52:00,
2013-11-24 15:02:00,32.0,30.0,-100.00,North,11,1.0,6.0,92,0.00,,,0.00,13.000000,,2013-11-25 00:02:00,
2013-11-24 15:12:00,32.0,30.0,-100.00,North,11,1.0,6.0,92,0.00,,,0.00,13.000000,,2013-11-25 00:12:00,
2013-11-24 15:22:00,32.0,30.0,-100.00,North,11,1.0,6.0,92,0.00,,,0.00,13.000000,,2013-11-25 00:22:00,
2013-11-24 15:52:00,30.0,28.0,-100.00,North,11,2.0,6.0,93,0.00,,,0.00,7.000000,,2013-11-25 00:52:00,
2013-11-24 16:02:00,30.0,28.0,-100.00,North,11,2.0,6.0,93,0.00,,,0.00,7.000000,,2013-11-25 01:02:00,
2013-11-24 16:11:00,30.0,28.0,-100.00,North,11,2.0,6.0,93,0.00,,,0.00,7.000000,,2013-11-25 01:11:00,
2013-11-24 16:21:00,30.0,28.0,-100.00,North,11,2.0,6.0,93,0.00,,,0.00,7.000000,,2013-11-25 01:21:00,
2013-11-24 16:52:00,29.0,27.0,-100.00,NNE,12,2.0,6.0,93,0.00,,,0.00,1.000000,,2013-11-25 01:52:00,
2013-11-24 17:01:00,29.0,27.0,-100.00,NNE,12,2.0,6.0,93,0.00,,,0.00,1.000000,,2013-11-25 02:01:00,
2013-11-24 17:11:00,29.0,27.0,-100.00,NNE,12,2.0,6.0,93,0.00,,,0.00,1.000000,,2013-11-25 02:11:00,
2013-11-24 17:21:00,29.0,27.0,-100.00,NNE,12,2.0,6.0,93,0.00,,,0.00,1.000000,,2013-11-25 02:21:00,
2013-11-24 17:52:00,28.0,27.0,-100.00,NNE,26,1.0,5.0,94,0.00,,,0.00,0.000000,,2013-11-25 02:52:00,
2013-11-24 18:02:00,28.0,27.0,-100.00,NNE,26,1.0,5.0,94,0.00,,,0.00,0.000000,,2013-11-25 03:02:00,
2013-11-24 18:11:00,28.0,27.0,-100.00,NNE,26,1.0,5.0,94,0.00,,,0.00,0.000000,,2013-11-25 03:11:00,
2013-11-24 18:21:00,28.0,27.0,-100.00,NNE,26,1.0,5.0,94,0.00,,,0.00,0.000000,,2013-11-25 03:21:00,
2013-11-24 18:53:00,28.0,27.0,-100.00,NE,36,2.0,9.0,94,0.00,,,0.00,0.000000,,2013-11-25 03:53:00,
2013-11-24 19:03:00,28.0,27.0,-100.00,NE,36,2.0,9.0,94,0.00,,,0.00,0.000000,,2013-11-25 04:03:00,
2013-11-24 19:13:00,28.0,27.0,-100.00,NE,36,2.0,9.0,94,0.00,,,0.00,0.000000,,2013-11-25 04:13:00,
2013-11-24 19:23:00,28.0,27.0,-100.00,NE,36,2.0,9.0,94,0.00,,,0.00,0.000000,,2013-11-25 04:23:00,
2013-11-24 19:53:00,27.0,25.0,-100.00,NE,42,5.0,9.0,93,0.00,,,0.00,0.000000,,2013-11-25 04:53:00,
2013-11-24 20:02:00,27.0,25.0,-100.00,NE,42,5.0,9.0,93,0.00,,,0.00,0.000000,,2013-11-25 05:02:00,
2013-11-24 20:12:00,27.0,25.0,-100.00,NE,42,5.0,9.0,93,0.00,,,0.00,0.000000,,2013-11-25 05:12:00,
2013-11-24 20:22:00,27.0,25.0,-100.00,NE,42,5.0,9.0,93,0.00,,,0.00,0.000000,,2013-11-25 05:22:00,
2013-11-24 20:53:00,27.0,25.0,-100.00,ENE,67,3.0,11.0,93,0.00,,,0.00,0.000000,,2013-11-25 05:53:00,
2013-11-24 21:02:00,27.0,25.0,-100.00,ENE,67,3.0,11.0,93,0.00,,,0.00,0.000000,,2013-11-25 06:02:00,
2013-11-24 21:12:00,27.0,25.0,-100.00,ENE,67,3.0,11.0,93,0.00,,,0.00,0.000000,,2013-11-25 06:12:00,
2013-11-24 21:21:00,27.0,25.0,-100.00,ENE,67,3.0,11.0,93,0.00,,,0.00,0.000000,,2013-11-25 06:21:00,
2013-11-24 21:52:00,26.0,24.0,-100.00,NE,39,6.0,11.0,93,0.00,,,0.00,0.000000,,2013-11-25 06:52:00,
2013-11-24 22:01:00,26.0,24.0,-100.00,NE,39,6.0,11.0,93,0.00,,,0.00,0.000000,,2013-11-25 07:01:00,
2013-11-24 22:11:00,26.0,24.0,-100.00,NE,39,6.0,11.0,93,0.00,,,0.00,0.000000,,2013-11-25 07:11:00,
2013-11-24 22:21:00,26.0,24.0,-100.00,NE,39,6.0,11.0,93,0.00,,,0.00,0.000000,,2013-11-25 07:21:00,
2013-11-24 22:52:00,26.0,24.0,-100.00,NE,43,6.0,9.0,93,0.00,,,0.00,0.000000,,2013-11-25 07:52:00,
2013-11-24 23:02:00,26.0,24.0,-100.00,NE,43,6.0,9.0,93,0.00,,,0.00,0.000000,,2013-11-25 08:02:00,
2013-11-24 23:11:00,26.0,24.0,-100.00,NE,43,6.0,9.0,93,0.00,,,0.00,0.000000,,2013-11-25 08:11:00,
2013-11-24 23:21:00,26.0,24.0,-100.00,NE,43,6.0,9.0,93,0.00,,,0.00,0.000000,,2013-11-25 08:21:00,
2013-11-24 23:52:00,25.0,23.0,-100.00,NE,44,3.0,7.0,93,0.00,,,0.00,0.000000,,2013-11-25 08:52:00,